< < Back
Terminal Aerodrome Forecast


Current Version              Previous Versions:   1  2  3  4  5  6  7  8  9  

Terminal Aerodrome Forecast

578
FTUS44 KHUN 272336
TAFHSV
TAF
KHSV 272336Z 2800/2824 15008KT 6SM BR VCSH SCT025 OVC035
     FM280400 16006KT 4SM RA BR BKN008 OVC015
     FM281600 34008KT 5SM -RA BR BKN008 OVC015=



Latest METAR

772
SAUS80 KWBC 280300 RRB
MTRHSV
METAR KHSV 280253Z 18005KT 6SM RA OVC011 13/10 A3014 RMK AO2 RAB06
SLP206 P0002 60002 T01280100 53004


USA.gov is the U.S. government's official web portal to all federal, state and local government web resources and services.